createdAt,value
2019-04-25T00:01:21.542Z,21.93
2019-04-25T00:03:51.409Z,26.63
2019-04-25T00:06:21.520Z,31.77
2019-04-25T00:08:51.562Z,23.93
2019-04-25T00:11:21.856Z,25.73
2019-04-25T00:13:51.606Z,27.07
2019-04-25T00:16:22.549Z,20.47
2019-04-25T00:18:51.729Z,24.87
2019-04-25T00:21:34.573Z,30.27
2019-04-25T00:24:04.976Z,32.17
2019-04-25T00:26:37.809Z,24.03
2019-04-25T00:29:06.611Z,25.27
2019-04-25T00:31:35.436Z,25.90
2019-04-25T00:34:04.942Z,37.03
2019-04-25T00:36:33.726Z,34.03
2019-04-25T00:39:02.758Z,28.97
2019-04-25T00:41:32.062Z,26.97
2019-04-25T00:44:02.405Z,34.47
2019-04-25T00:46:32.204Z,43.33
2019-04-25T00:49:02.511Z,31.17
2019-04-25T00:51:31.768Z,29.70
2019-04-25T00:54:02.379Z,30.33
2019-04-25T00:56:32.203Z,31.03
2019-04-25T00:59:11.866Z,23.63
2019-04-25T01:01:58.500Z,26.00
2019-04-25T01:04:28.020Z,28.33
2019-04-25T01:06:56.753Z,32.53
2019-04-25T01:09:27.281Z,31.37
2019-04-25T01:11:56.205Z,30.97
2019-04-25T01:14:24.985Z,33.77
2019-04-25T01:16:54.801Z,28.37
2019-04-25T01:19:23.749Z,23.77
2019-04-25T01:21:54.157Z,27.83
2019-04-25T01:24:24.024Z,29.93
2019-04-25T01:26:53.802Z,24.63
2019-04-25T01:29:23.513Z,25.83
2019-04-25T01:31:54.082Z,30.87
2019-04-25T01:34:41.214Z,28.00
2019-04-25T01:37:11.803Z,27.87
2019-04-25T01:39:45.144Z,27.10
2019-04-25T01:42:18.533Z,27.17
2019-04-25T01:44:49.501Z,28.30
2019-04-25T01:47:19.404Z,19.30
2019-04-25T01:49:48.837Z,25.63
2019-04-25T01:52:17.785Z,22.33
2019-04-25T01:54:46.552Z,24.30
2019-04-25T01:57:16.590Z,25.70
2019-04-25T01:59:45.341Z,25.97
2019-04-25T02:02:15.943Z,22.80
2019-04-25T02:04:44.665Z,23.70
2019-04-25T02:07:13.603Z,25.87
2019-04-25T02:09:43.590Z,23.40
2019-04-25T02:12:15.511Z,22.43
2019-04-25T02:14:44.622Z,19.90
2019-04-25T02:17:14.142Z,19.53
2019-04-25T02:19:44.181Z,19.53
2019-04-25T02:22:14.572Z,16.87
2019-04-25T02:24:43.808Z,21.73
2019-04-25T02:27:13.546Z,20.27
2019-04-25T02:29:44.463Z,12.70
2019-04-25T02:32:14.535Z,12.93
2019-04-25T02:34:45.606Z,14.60
2019-04-25T02:37:14.546Z,14.30
2019-04-25T02:39:44.775Z,14.90
2019-04-25T02:42:16.316Z,16.13
2019-04-25T02:44:45.820Z,14.20
2019-04-25T02:47:24.741Z,11.27
2019-04-25T02:49:55.926Z,14.30
2019-04-25T02:52:26.291Z,11.77
2019-04-25T02:54:56.970Z,12.07
2019-04-25T02:57:25.534Z,15.03
2019-04-25T02:59:54.829Z,12.97
2019-04-25T03:02:24.903Z,11.20
2019-04-25T03:04:54.566Z,12.23
2019-04-25T03:07:24.672Z,12.27
2019-04-25T03:09:54.725Z,15.83
2019-04-25T03:12:30.739Z,15.20
2019-04-25T03:14:54.934Z,11.83
2019-04-25T03:17:24.726Z,12.80
2019-04-25T03:20:01.938Z,14.63
2019-04-25T03:22:34.604Z,16.37
2019-04-25T03:25:06.982Z,16.93
2019-04-25T03:27:34.586Z,13.40
2019-04-25T03:30:07.245Z,19.10
2019-04-25T03:32:35.642Z,21.33
2019-04-25T03:35:05.845Z,18.27
2019-04-25T03:37:35.313Z,21.47
2019-04-25T03:40:06.660Z,18.13
2019-04-25T03:42:36.414Z,15.67
2019-04-25T03:45:06.099Z,25.43
2019-04-25T03:47:35.438Z,23.97
2019-04-25T03:50:07.972Z,18.80
2019-04-25T03:52:36.926Z,26.07
2019-04-25T03:55:07.746Z,24.20
2019-04-25T03:57:37.438Z,26.93
2019-04-25T04:00:07.538Z,18.93
2019-04-25T04:02:36.327Z,23.90
2019-04-25T04:05:07.268Z,18.70
2019-04-25T04:07:36.545Z,26.83
2019-04-25T04:10:06.713Z,22.37
2019-04-25T04:12:35.678Z,26.77
2019-04-25T04:15:06.953Z,22.30
2019-04-25T04:17:40.398Z,15.13
2019-04-25T04:20:11.196Z,23.67
2019-04-25T04:22:56.930Z,23.90
2019-04-25T04:25:25.937Z,22.07
2019-04-25T04:27:54.670Z,18.87
2019-04-25T04:30:24.166Z,19.83
2019-04-25T04:32:53.683Z,24.70
2019-04-25T04:35:23.492Z,23.30
2019-04-25T04:37:54.083Z,19.53
2019-04-25T04:40:24.278Z,21.43
2019-04-25T04:42:53.354Z,21.20
2019-04-25T04:45:23.284Z,17.13
2019-04-25T04:47:53.313Z,18.00
2019-04-25T04:50:23.273Z,18.47
2019-04-25T04:52:53.970Z,19.20
2019-04-25T04:55:23.205Z,16.63
2019-04-25T04:57:52.146Z,19.97
2019-04-25T05:00:22.820Z,20.23
2019-04-25T05:03:12.599Z,25.20
2019-04-25T05:05:44.032Z,20.30
2019-04-25T05:08:17.330Z,18.90
2019-04-25T05:10:46.114Z,20.27
2019-04-25T05:13:16.640Z,25.80
2019-04-25T05:15:45.313Z,19.83
2019-04-25T05:18:15.725Z,24.70
2019-04-25T05:20:44.451Z,19.47
2019-04-25T05:23:14.830Z,23.33
2019-04-25T05:25:44.237Z,23.30
2019-04-25T05:28:15.551Z,23.87
2019-04-25T05:30:57.174Z,23.07
2019-04-25T05:33:25.969Z,24.27
2019-04-25T05:35:54.696Z,27.30
2019-04-25T05:38:24.361Z,28.73
2019-04-25T05:40:58.750Z,26.80
2019-04-25T05:43:28.982Z,30.00
2019-04-25T05:45:57.774Z,26.30
2019-04-25T05:48:26.501Z,30.67
2019-04-25T05:50:55.318Z,27.93
2019-04-25T05:53:25.076Z,31.40
2019-04-25T05:55:54.179Z,37.60
2019-04-25T05:58:24.520Z,33.07
2019-04-25T06:00:54.693Z,38.03
2019-04-25T06:03:24.987Z,40.87
2019-04-25T06:05:53.973Z,31.37
2019-04-25T06:08:25.605Z,35.53
2019-04-25T06:10:56.361Z,35.90
2019-04-25T06:13:35.723Z,28.10
2019-04-25T06:16:06.101Z,37.73
2019-04-25T06:18:43.881Z,42.13
2019-04-25T06:21:14.101Z,36.60
2019-04-25T06:24:00.773Z,35.47
2019-04-25T06:26:35.407Z,30.97
2019-04-25T06:28:59.979Z,39.57
2019-04-25T06:31:29.311Z,36.00
2019-04-25T06:33:59.818Z,30.80
2019-04-25T06:36:29.070Z,40.10
2019-04-25T06:38:57.773Z,39.30
2019-04-25T06:41:27.071Z,38.57
2019-04-25T06:43:57.481Z,40.87
2019-04-25T06:46:28.696Z,34.77
2019-04-25T06:49:03.528Z,36.57
2019-04-25T06:51:50.661Z,30.57
2019-04-25T06:54:21.010Z,30.93
2019-04-25T06:56:50.932Z,32.83
2019-04-25T06:59:19.773Z,37.57
2019-04-25T07:01:48.721Z,32.17
2019-04-25T07:04:17.558Z,37.77
2019-04-25T07:06:46.326Z,29.23
2019-04-25T07:09:15.061Z,33.30
2019-04-25T07:11:44.230Z,33.87
2019-04-25T07:14:14.235Z,37.57
2019-04-25T07:16:43.367Z,35.70
2019-04-25T07:19:14.259Z,31.77
2019-04-25T07:21:44.269Z,39.37
2019-04-25T07:24:14.517Z,34.63
2019-04-25T07:26:45.358Z,36.53
2019-04-25T07:29:26.101Z,33.17
2019-04-25T07:32:00.022Z,29.10
2019-04-25T07:34:30.518Z,34.70
2019-04-25T07:36:59.253Z,32.97
2019-04-25T07:39:28.017Z,28.43
2019-04-25T07:41:56.753Z,28.50
2019-04-25T07:44:38.319Z,33.77
2019-04-25T07:46:55.893Z,31.50
2019-04-25T07:49:24.626Z,29.10
2019-04-25T07:51:53.732Z,32.53
2019-04-25T07:54:24.158Z,26.80
2019-04-25T07:56:54.808Z,24.10
2019-04-25T07:59:23.797Z,20.63
2019-04-25T08:01:53.529Z,22.80
2019-04-25T08:04:23.575Z,20.27
2019-04-25T08:06:54.157Z,18.23
2019-04-25T08:09:24.305Z,19.83
2019-04-25T08:11:54.725Z,16.40
2019-04-25T08:14:32.061Z,18.17
2019-04-25T08:17:06.441Z,17.40
2019-04-25T08:19:35.687Z,14.00
2019-04-25T08:22:05.586Z,14.03
2019-04-25T08:24:37.256Z,14.23
2019-04-25T08:27:06.763Z,11.57
2019-04-25T08:29:37.959Z,9.10
2019-04-25T08:32:05.946Z,8.67
2019-04-25T08:34:36.033Z,7.03
2019-04-25T08:37:17.060Z,3.37
2019-04-25T08:39:37.329Z,3.27
2019-04-25T08:42:05.882Z,3.43
2019-04-25T08:44:35.704Z,2.87
2019-04-25T08:47:04.914Z,2.20
2019-04-25T08:49:36.191Z,2.20
2019-04-25T08:52:06.012Z,1.60
2019-04-25T08:54:49.745Z,1.67
2019-04-25T08:57:20.118Z,2.07
2019-04-25T08:59:55.594Z,2.13
2019-04-25T09:02:26.126Z,1.87
2019-04-25T09:04:56.498Z,1.60
2019-04-25T09:07:25.338Z,2.00
2019-04-25T09:09:54.130Z,2.40
2019-04-25T09:12:24.028Z,2.30
2019-04-25T09:14:54.184Z,1.60
2019-04-25T09:17:24.337Z,2.30
2019-04-25T09:19:54.206Z,1.83
2019-04-25T09:22:24.199Z,1.80
2019-04-25T09:24:54.026Z,2.60
2019-04-25T09:27:23.502Z,1.77
2019-04-25T09:29:54.070Z,2.00
2019-04-25T09:32:23.837Z,2.80
2019-04-25T09:34:54.053Z,2.00
2019-04-25T09:37:24.526Z,2.40
2019-04-25T09:40:09.857Z,1.50
2019-04-25T09:42:39.484Z,2.10
2019-04-25T09:45:10.766Z,1.27
2019-04-25T09:47:41.312Z,1.73
2019-04-25T09:50:14.879Z,1.90
2019-04-25T09:52:44.364Z,2.13
2019-04-25T09:55:33.955Z,2.30
2019-04-25T09:58:07.237Z,2.73
2019-04-25T10:00:38.408Z,2.30
2019-04-25T10:03:07.607Z,1.53
2019-04-25T10:05:37.078Z,1.50
2019-04-25T10:08:06.286Z,1.70
2019-04-25T10:10:35.014Z,1.40
2019-04-25T10:13:05.987Z,1.00
2019-04-25T10:15:52.915Z,1.63
2019-04-25T10:18:23.383Z,1.97
2019-04-25T10:20:54.173Z,1.30
2019-04-25T10:23:24.057Z,1.43
2019-04-25T10:25:53.817Z,2.03
2019-04-25T10:28:23.401Z,1.40
2019-04-25T10:30:53.107Z,1.33
2019-04-25T10:33:24.543Z,1.20
2019-04-25T10:35:58.903Z,1.60
2019-04-25T10:38:26.237Z,1.30
2019-04-25T10:40:55.170Z,1.00
2019-04-25T10:43:24.060Z,1.53
2019-04-25T10:45:55.122Z,1.57
2019-04-25T10:48:24.218Z,1.80
2019-04-25T10:50:53.862Z,1.90
2019-04-25T10:53:25.252Z,1.63
2019-04-25T10:55:54.077Z,2.10
2019-04-25T10:58:22.814Z,5.37
2019-04-25T11:00:53.645Z,8.00
2019-04-25T11:03:26.989Z,9.30
2019-04-25T11:05:56.016Z,8.13
2019-04-25T11:08:25.056Z,8.00
2019-04-25T11:10:54.963Z,8.27
2019-04-25T11:13:23.690Z,6.97
2019-04-25T11:15:52.522Z,6.83
2019-04-25T11:18:21.523Z,5.90
2019-04-25T11:20:50.413Z,5.80
2019-04-25T11:23:19.249Z,5.00
2019-04-25T11:25:48.006Z,4.50
2019-04-25T11:28:17.405Z,4.03
2019-04-25T11:30:48.205Z,3.13
2019-04-25T11:33:17.926Z,3.30
2019-04-25T11:35:47.826Z,2.87
2019-04-25T11:38:18.749Z,2.30
2019-04-25T11:40:55.429Z,2.77
2019-04-25T11:43:24.226Z,3.20
2019-04-25T11:45:54.056Z,2.80
2019-04-25T11:48:23.856Z,2.40
2019-04-25T11:50:55.715Z,3.07
2019-04-25T11:53:24.974Z,3.70
2019-04-25T11:55:54.713Z,5.00
2019-04-25T11:58:24.218Z,3.67
2019-04-25T12:00:54.178Z,3.80
2019-04-25T12:03:24.632Z,3.27
2019-04-25T12:05:53.449Z,5.87
2019-04-25T12:08:24.294Z,6.23
2019-04-25T12:10:54.808Z,7.03
2019-04-25T12:13:24.273Z,6.80
2019-04-25T12:15:54.823Z,7.07
2019-04-25T12:18:23.656Z,6.97
2019-04-25T12:20:54.847Z,8.00
2019-04-25T12:23:23.401Z,8.37
2019-04-25T12:25:53.962Z,8.37
2019-04-25T12:28:23.551Z,8.03
2019-04-25T12:30:54.983Z,9.00
2019-04-25T12:33:23.892Z,9.93
2019-04-25T12:35:54.184Z,7.47
2019-04-25T12:38:24.572Z,9.47
2019-04-25T12:40:54.409Z,9.17
2019-04-25T12:43:25.597Z,9.83
2019-04-25T12:45:58.798Z,12.97
2019-04-25T12:48:27.569Z,15.13
2019-04-25T12:50:56.710Z,14.60
2019-04-25T12:53:25.626Z,12.90
2019-04-25T12:55:54.944Z,10.93
2019-04-25T12:58:23.808Z,7.80
2019-04-25T13:00:55.694Z,6.57
2019-04-25T13:03:24.114Z,6.50
2019-04-25T13:05:53.996Z,6.27
2019-04-25T13:08:24.242Z,5.23
2019-04-25T13:10:54.345Z,5.40
2019-04-25T13:13:24.143Z,5.13
2019-04-25T13:15:53.355Z,5.10
2019-04-25T13:18:22.563Z,5.07
2019-04-25T13:20:51.564Z,4.97
2019-04-25T13:23:20.361Z,4.17
2019-04-25T13:25:49.562Z,4.70
2019-04-25T13:28:31.994Z,5.27
2019-04-25T13:31:15.109Z,4.93
2019-04-25T13:33:51.454Z,5.13
2019-04-25T13:36:21.912Z,4.10
2019-04-25T13:38:50.740Z,5.53
2019-04-25T13:41:19.485Z,4.67
2019-04-25T13:43:48.219Z,5.23
2019-04-25T13:46:20.630Z,5.47
2019-04-25T13:48:47.422Z,4.77
2019-04-25T13:51:16.184Z,4.67
2019-04-25T13:53:44.918Z,5.77
2019-04-25T13:56:13.922Z,4.53
2019-04-25T13:58:44.351Z,4.47
2019-04-25T14:01:17.039Z,4.50
2019-04-25T14:03:45.295Z,4.60
2019-04-25T14:06:14.426Z,5.40
2019-04-25T14:08:43.498Z,4.80
2019-04-25T14:11:14.005Z,4.30
2019-04-25T14:13:42.888Z,4.87
2019-04-25T14:16:21.177Z,5.17
2019-04-25T14:18:57.662Z,5.07
2019-04-25T14:21:27.249Z,4.40
2019-04-25T14:23:56.095Z,4.40
2019-04-25T14:26:25.132Z,4.00
2019-04-25T14:28:54.213Z,3.63
2019-04-25T14:31:41.322Z,4.43
2019-04-25T14:33:55.133Z,5.53
2019-04-25T14:36:25.820Z,4.40
2019-04-25T14:38:54.265Z,4.37
2019-04-25T14:41:23.784Z,3.50
2019-04-25T14:43:52.634Z,3.07
2019-04-25T14:46:21.482Z,4.23
2019-04-25T14:48:50.356Z,3.83
2019-04-25T14:51:19.145Z,3.57
2019-04-25T14:53:47.869Z,3.77
2019-04-25T14:56:18.371Z,4.20
2019-04-25T14:58:47.290Z,3.77
2019-04-25T15:01:17.860Z,5.23
2019-04-25T15:03:46.792Z,4.20
2019-04-25T15:06:15.591Z,4.90
2019-04-25T15:08:44.389Z,4.07
2019-04-25T15:11:13.154Z,4.90
2019-04-25T15:13:41.884Z,5.53
2019-04-25T15:16:10.631Z,5.17
2019-04-25T15:18:46.400Z,4.07
2019-04-25T15:21:09.846Z,6.17
2019-04-25T15:23:38.648Z,4.40
2019-04-25T15:26:07.573Z,5.37
2019-04-25T15:28:36.369Z,6.17
2019-04-25T15:31:05.236Z,3.27
2019-04-25T15:33:34.026Z,4.47
2019-04-25T15:36:07.433Z,6.57
2019-04-25T15:38:55.977Z,5.37
2019-04-25T15:41:32.422Z,4.30
2019-04-25T15:44:18.143Z,3.17
2019-04-25T15:46:48.525Z,3.93
2019-04-25T15:49:18.913Z,4.40
2019-04-25T15:51:47.628Z,5.83
2019-04-25T15:54:16.353Z,5.50
2019-04-25T15:56:45.171Z,4.53
2019-04-25T15:59:14.035Z,4.33
2019-04-25T16:01:42.830Z,4.83
2019-04-25T16:04:11.680Z,3.60
2019-04-25T16:06:40.443Z,6.57
2019-04-25T16:09:10.514Z,4.67
2019-04-25T16:11:39.445Z,5.97
2019-04-25T16:14:08.358Z,3.97
2019-04-25T16:16:37.086Z,5.17
2019-04-25T16:19:08.087Z,3.43
2019-04-25T16:21:37.683Z,3.53
2019-04-25T16:24:06.886Z,5.67
2019-04-25T16:26:35.721Z,6.20
2019-04-25T16:29:04.811Z,5.77
2019-04-25T16:31:34.561Z,3.73
2019-04-25T16:34:03.474Z,4.93
2019-04-25T16:36:32.528Z,3.13
2019-04-25T16:39:01.581Z,7.20
2019-04-25T16:41:31.477Z,6.30
2019-04-25T16:44:01.973Z,6.73
2019-04-25T16:46:32.054Z,5.33
2019-04-25T16:49:00.845Z,5.40
2019-04-25T16:51:29.882Z,4.13
2019-04-25T16:53:59.498Z,3.30
2019-04-25T16:56:29.312Z,5.03
2019-04-25T16:58:58.142Z,4.33
2019-04-25T17:01:26.982Z,5.30
2019-04-25T17:03:55.701Z,5.20
2019-04-25T17:06:24.442Z,4.50
2019-04-25T17:08:53.198Z,5.37
2019-04-25T17:11:21.975Z,4.23
2019-04-25T17:13:52.304Z,4.17
2019-04-25T17:16:39.261Z,3.93
2019-04-25T17:19:12.673Z,3.87
2019-04-25T17:21:41.481Z,4.10
2019-04-25T17:24:10.209Z,2.37
2019-04-25T17:26:39.495Z,3.70
2019-04-25T17:29:09.930Z,3.33
2019-04-25T17:31:55.705Z,3.50
2019-04-25T17:34:28.981Z,4.90
2019-04-25T17:36:59.377Z,4.53
2019-04-25T17:39:33.445Z,3.37
2019-04-25T17:42:02.248Z,3.20
2019-04-25T17:44:31.634Z,4.20
2019-04-25T17:47:06.538Z,4.10
2019-04-25T17:49:32.753Z,4.70
2019-04-25T17:52:01.712Z,6.07
2019-04-25T17:54:32.806Z,4.80
2019-04-25T17:57:01.676Z,6.13
2019-04-25T17:59:30.551Z,6.50
2019-04-25T18:01:59.387Z,7.27
2019-04-25T18:04:28.216Z,8.47
2019-04-25T18:06:56.944Z,8.77
2019-04-25T18:09:26.045Z,10.67
2019-04-25T18:11:54.854Z,15.97
2019-04-25T18:14:23.589Z,16.43
2019-04-25T18:16:52.401Z,21.87
2019-04-25T18:19:25.079Z,19.37
2019-04-25T18:21:54.831Z,13.37
2019-04-25T18:24:41.127Z,16.83
2019-04-25T18:27:17.375Z,17.13
2019-04-25T18:29:46.345Z,11.97
2019-04-25T18:32:15.424Z,9.97
2019-04-25T18:34:46.501Z,13.43
2019-04-25T18:37:25.970Z,16.50
2019-04-25T18:39:59.082Z,13.23
2019-04-25T18:42:36.408Z,10.57
2019-04-25T18:45:07.601Z,12.47
2019-04-25T18:47:36.965Z,9.63
2019-04-25T18:50:07.853Z,10.43
2019-04-25T18:52:47.211Z,15.67
2019-04-25T18:55:34.218Z,14.93
2019-04-25T18:58:04.610Z,16.50
2019-04-25T19:00:41.644Z,15.43
2019-04-25T19:03:23.000Z,10.53
2019-04-25T19:05:53.227Z,15.93
2019-04-25T19:08:22.505Z,16.03
2019-04-25T19:10:51.649Z,19.53
2019-04-25T19:13:20.558Z,12.33
2019-04-25T19:15:49.357Z,12.33
2019-04-25T19:18:18.135Z,16.33
2019-04-25T19:20:48.026Z,13.20
2019-04-25T19:23:16.915Z,18.63
2019-04-25T19:25:45.923Z,14.37
2019-04-25T19:28:14.776Z,15.87
2019-04-25T19:30:43.611Z,12.77
2019-04-25T19:33:12.415Z,15.67
2019-04-25T19:35:41.701Z,12.93
2019-04-25T19:38:10.518Z,13.83
2019-04-25T19:40:42.162Z,19.80
2019-04-25T19:43:12.659Z,18.30
2019-04-25T19:45:42.513Z,19.10
2019-04-25T19:48:11.431Z,16.30
2019-04-25T19:50:40.698Z,19.40
2019-04-25T19:53:10.424Z,14.07
2019-04-25T19:55:39.146Z,18.40
2019-04-25T19:58:09.518Z,20.30
2019-04-25T20:00:38.359Z,15.23
2019-04-25T20:03:08.826Z,21.70
2019-04-25T20:05:39.185Z,23.70
2019-04-25T20:08:12.002Z,18.27
2019-04-25T20:10:45.160Z,12.53
2019-04-25T20:13:13.870Z,23.17
2019-04-25T20:15:43.170Z,17.63
2019-04-25T20:18:12.990Z,14.77
2019-04-25T20:20:41.727Z,19.03
2019-04-25T20:23:10.480Z,14.73
2019-04-25T20:25:39.273Z,13.57
2019-04-25T20:28:08.097Z,19.07
2019-04-25T20:30:36.957Z,8.60
2019-04-25T20:33:05.689Z,11.30
2019-04-25T20:35:34.434Z,17.77
2019-04-25T20:38:03.281Z,14.27
2019-04-25T20:40:32.005Z,13.80
2019-04-25T20:43:00.731Z,11.17
2019-04-25T20:45:29.590Z,12.33
2019-04-25T20:47:58.298Z,9.27
2019-04-25T20:50:27.100Z,9.57
2019-04-25T20:52:55.849Z,9.70
2019-04-25T20:55:24.578Z,9.70
2019-04-25T20:57:53.314Z,8.03
2019-04-25T21:00:43.853Z,9.50
2019-04-25T21:03:12.599Z,11.13
2019-04-25T21:05:41.493Z,9.73
2019-04-25T21:08:10.315Z,9.43
2019-04-25T21:10:40.136Z,8.57
2019-04-25T21:13:10.516Z,8.33
2019-04-25T21:15:56.246Z,7.97
2019-04-25T21:18:43.403Z,9.27
2019-04-25T21:21:12.169Z,6.27
2019-04-25T21:23:40.893Z,8.67
2019-04-25T21:26:09.613Z,7.17
2019-04-25T21:28:38.366Z,9.20
2019-04-25T21:31:07.159Z,7.93
2019-04-25T21:33:35.885Z,7.10
2019-04-25T21:36:04.952Z,7.23
2019-04-25T21:38:34.149Z,5.83
2019-04-25T21:41:07.256Z,6.23
2019-04-25T21:43:37.921Z,7.73
2019-04-25T21:46:07.014Z,6.03
2019-04-25T21:48:36.141Z,6.07
2019-04-25T21:51:06.815Z,6.53
2019-04-25T21:53:35.607Z,4.83
2019-04-25T21:56:04.549Z,4.87
2019-04-25T21:58:33.281Z,6.00
2019-04-25T22:01:04.478Z,4.37
2019-04-25T22:03:33.311Z,4.30
2019-04-25T22:06:02.952Z,5.43
2019-04-25T22:08:31.913Z,5.13
2019-04-25T22:11:01.242Z,4.87
2019-04-25T22:13:30.054Z,4.70
2019-04-25T22:15:59.677Z,3.90
2019-04-25T22:18:29.072Z,3.20
2019-04-25T22:20:58.282Z,3.43
2019-04-25T22:23:27.068Z,5.73
2019-04-25T22:25:56.294Z,3.83
2019-04-25T22:28:25.596Z,4.67
2019-04-25T22:30:57.710Z,5.90
2019-04-25T22:33:44.429Z,4.17
2019-04-25T22:36:24.251Z,5.77
2019-04-25T22:39:11.687Z,5.60
2019-04-25T22:41:46.679Z,5.47
2019-04-25T22:44:15.713Z,6.87
2019-04-25T22:46:44.923Z,6.53
2019-04-25T22:49:13.633Z,7.43
2019-04-25T22:51:42.457Z,6.03
2019-04-25T22:54:11.789Z,5.43
2019-04-25T22:56:40.631Z,6.67
2019-04-25T22:59:09.755Z,4.57
2019-04-25T23:01:44.163Z,7.93
2019-04-25T23:04:30.777Z,8.70
2019-04-25T23:06:59.573Z,6.63
2019-04-25T23:09:29.967Z,9.30
2019-04-25T23:11:59.027Z,6.97
2019-04-25T23:14:28.123Z,6.07
2019-04-25T23:16:56.918Z,6.03
2019-04-25T23:19:25.686Z,6.67
2019-04-25T23:21:54.510Z,4.60
2019-04-25T23:24:24.877Z,7.17
2019-04-25T23:27:01.587Z,6.20
2019-04-25T23:29:30.385Z,5.87
2019-04-25T23:31:59.183Z,6.87
2019-04-25T23:34:28.214Z,4.37
2019-04-25T23:36:56.944Z,9.03
2019-04-25T23:39:25.969Z,8.03
2019-04-25T23:41:54.717Z,8.87
2019-04-25T23:44:23.444Z,8.13
2019-04-25T23:46:52.365Z,7.13
2019-04-25T23:49:21.122Z,8.17
2019-04-25T23:51:50.149Z,7.17
2019-04-25T23:54:18.878Z,7.83
2019-04-25T23:56:47.697Z,7.90
2019-04-25T23:59:17.731Z,6.23
